createdAt,value
2022-08-07T00:02:36.454Z,13.43
2022-08-07T00:07:19.221Z,13.57
2022-08-07T00:12:24.560Z,12.43
2022-08-07T00:17:28.164Z,12.00
2022-08-07T00:22:37.506Z,13.23
2022-08-07T00:27:53.708Z,13.07
2022-08-07T00:33:00.148Z,12.20
2022-08-07T00:38:31.265Z,12.18
2022-08-07T00:43:59.606Z,11.63
2022-08-07T00:48:56.631Z,12.77
2022-08-07T00:54:04.409Z,12.07
2022-08-07T00:59:07.128Z,12.18
2022-08-07T01:04:30.330Z,12.77
2022-08-07T01:10:04.969Z,12.43
2022-08-07T01:15:01.187Z,11.57
2022-08-07T01:25:54.379Z,10.63
2022-08-07T01:30:42.908Z,10.68
2022-08-07T01:35:53.459Z,11.07
2022-08-07T01:41:03.538Z,12.27
2022-08-07T01:46:18.953Z,12.20
2022-08-07T01:52:03.131Z,10.40
2022-08-07T01:57:01.217Z,11.20
2022-08-07T02:07:15.011Z,10.13
2022-08-07T02:12:18.545Z,10.48
2022-08-07T02:17:34.301Z,9.93
2022-08-07T02:22:43.759Z,10.95
2022-08-07T02:28:06.984Z,9.77
2022-08-07T02:33:57.097Z,10.85
2022-08-07T02:38:57.794Z,12.07
2022-08-07T02:44:03.672Z,10.80
2022-08-07T02:49:07.435Z,11.70
2022-08-07T02:54:13.209Z,10.85
2022-08-07T02:59:23.916Z,11.57
2022-08-07T03:04:31.564Z,11.40
2022-08-07T03:09:41.810Z,11.20
2022-08-07T03:14:48.442Z,12.35
2022-08-07T03:19:55.580Z,10.55
2022-08-07T03:25:21.354Z,12.13
2022-08-07T03:30:45.638Z,11.57
2022-08-07T03:35:55.006Z,11.60
2022-08-07T03:41:00.592Z,12.98
2022-08-07T03:46:10.542Z,10.50
2022-08-07T03:51:23.511Z,11.00
2022-08-07T03:56:39.475Z,10.23
2022-08-07T04:02:20.304Z,9.75
2022-08-07T04:07:23.472Z,9.00
2022-08-07T04:12:32.987Z,9.50
2022-08-07T04:18:56.816Z,9.05
2022-08-07T04:23:06.442Z,8.27
2022-08-07T04:28:13.636Z,9.15
2022-08-07T04:33:18.122Z,8.85
2022-08-07T04:38:25.409Z,8.00
2022-08-07T04:44:10.130Z,8.60
2022-08-07T04:49:37.573Z,8.63
2022-08-07T04:55:00.497Z,7.78
2022-08-07T05:00:14.196Z,8.10
2022-08-07T05:06:19.224Z,7.95
2022-08-07T05:11:57.540Z,7.35
2022-08-07T05:17:11.881Z,7.07
2022-08-07T05:22:27.604Z,7.85
2022-08-07T05:28:16.462Z,8.05
2022-08-07T05:33:24.450Z,7.75
2022-08-07T05:39:00.371Z,8.20
2022-08-07T05:44:11.905Z,8.38
2022-08-07T05:49:24.917Z,8.05
2022-08-07T05:54:53.536Z,7.55
2022-08-07T06:00:16.042Z,7.10
2022-08-07T06:05:31.424Z,6.65
2022-08-07T06:10:39.961Z,7.15
2022-08-07T06:15:46.285Z,7.53
2022-08-07T06:22:12.535Z,7.03
2022-08-07T06:26:19.297Z,7.78
2022-08-07T06:31:38.310Z,7.88
2022-08-07T06:37:02.649Z,8.43
2022-08-07T06:42:37.518Z,6.78
2022-08-07T06:48:11.996Z,7.60
2022-08-07T06:55:29.150Z,8.15
2022-08-07T07:00:12.661Z,6.30
2022-08-07T07:04:28.329Z,6.75
2022-08-07T07:09:36.113Z,7.38
2022-08-07T07:15:24.173Z,8.75
2022-08-07T07:20:37.382Z,8.60
2022-08-07T07:26:32.235Z,8.18
2022-08-07T07:31:17.227Z,8.02
2022-08-07T07:36:32.402Z,7.70
2022-08-07T07:41:50.658Z,8.65
2022-08-07T07:47:15.724Z,9.43
2022-08-07T07:52:28.177Z,8.10
2022-08-07T07:57:50.230Z,8.98
2022-08-07T08:03:04.668Z,8.75
2022-08-07T08:08:09.551Z,9.20
2022-08-07T08:18:42.306Z,8.73
2022-08-07T08:24:06.677Z,9.13
2022-08-07T08:29:31.484Z,8.73
2022-08-07T08:34:34.470Z,9.25
2022-08-07T08:39:58.483Z,9.02
2022-08-07T08:45:41.861Z,9.45
2022-08-07T08:52:12.627Z,9.32
2022-08-07T09:02:34.611Z,8.95
2022-08-07T09:07:57.488Z,9.38
2022-08-07T09:13:09.796Z,9.20
2022-08-07T09:18:23.578Z,10.30
2022-08-07T09:24:33.138Z,9.05
2022-08-07T09:30:05.170Z,8.90
2022-08-07T09:41:06.282Z,8.75
2022-08-07T09:47:37.257Z,8.98
2022-08-07T09:52:09.893Z,8.13
2022-08-07T09:57:22.503Z,8.85
2022-08-07T10:03:08.180Z,8.45
2022-08-07T10:08:49.607Z,8.25
2022-08-07T10:14:23.004Z,8.02
2022-08-07T10:19:43.760Z,6.70
2022-08-07T10:25:09.893Z,6.18
2022-08-07T10:30:35.286Z,6.05
2022-08-07T10:36:08.226Z,5.78
2022-08-07T10:41:47.437Z,5.10
2022-08-07T10:47:02.610Z,5.57
2022-08-07T10:52:34.864Z,5.82
2022-08-07T10:58:06.118Z,5.05
2022-08-07T11:03:13.710Z,5.40
2022-08-07T11:08:39.051Z,5.05
2022-08-07T11:14:43.555Z,5.63
2022-08-07T11:19:50.408Z,6.75
2022-08-07T11:25:49.794Z,7.47
2022-08-07T11:36:45.191Z,6.35
2022-08-07T11:42:03.140Z,7.43
2022-08-07T11:52:37.767Z,6.47
2022-08-07T11:57:59.479Z,6.57
2022-08-07T12:03:41.499Z,5.78
2022-08-07T12:09:07.468Z,7.85
2022-08-07T12:14:56.003Z,6.40
2022-08-07T12:20:20.784Z,6.25
2022-08-07T12:26:00.801Z,6.57
2022-08-07T12:32:03.813Z,5.25
2022-08-07T12:37:16.797Z,5.18
2022-08-07T12:42:31.897Z,5.25
2022-08-07T12:47:55.628Z,5.88
2022-08-07T12:53:18.990Z,5.80
2022-08-07T12:58:22.059Z,5.80
2022-08-07T13:03:59.055Z,6.03
2022-08-07T13:10:19.924Z,5.90
2022-08-07T13:15:02.181Z,6.13
2022-08-07T13:26:32.000Z,5.82
2022-08-07T13:31:46.200Z,5.75
2022-08-07T13:37:20.065Z,5.90
2022-08-07T13:42:25.155Z,5.00
2022-08-07T13:48:08.009Z,5.70
2022-08-07T13:52:54.290Z,5.47
2022-08-07T13:58:31.888Z,6.15
2022-08-07T14:04:07.311Z,5.65
2022-08-07T14:09:04.803Z,7.82
2022-08-07T14:14:13.580Z,6.72
2022-08-07T14:20:42.873Z,6.55
2022-08-07T14:30:06.547Z,9.10
2022-08-07T14:35:45.786Z,9.13
2022-08-07T14:46:10.516Z,7.72
2022-08-07T14:51:22.027Z,6.65
2022-08-07T14:56:47.990Z,7.65
2022-08-07T15:02:33.001Z,7.15
2022-08-07T15:13:01.439Z,5.50
2022-08-07T15:18:33.915Z,5.35
2022-08-07T15:25:02.553Z,6.25
2022-08-07T15:30:04.692Z,15.38
2022-08-07T15:34:26.137Z,9.02
2022-08-07T15:39:57.051Z,8.00
2022-08-07T15:44:52.563Z,6.47
2022-08-07T15:50:05.399Z,7.03
2022-08-07T15:55:12.348Z,6.20
2022-08-07T16:00:31.115Z,6.65
2022-08-07T16:05:47.231Z,5.43
2022-08-07T16:10:58.627Z,6.10
2022-08-07T16:16:43.036Z,7.22
2022-08-07T16:22:33.948Z,6.18
2022-08-07T16:30:05.619Z,5.60
2022-08-07T16:34:02.929Z,5.40
2022-08-07T16:39:20.999Z,6.88
2022-08-07T16:45:14.814Z,6.45
2022-08-07T16:51:22.627Z,5.80
2022-08-07T16:56:53.358Z,4.68
2022-08-07T17:02:03.226Z,5.78
2022-08-07T17:07:28.325Z,6.78
2022-08-07T17:12:53.919Z,5.00
2022-08-07T17:18:07.488Z,4.95
2022-08-07T17:23:32.577Z,6.68
2022-08-07T17:29:08.296Z,8.00
2022-08-07T17:34:40.929Z,9.18
2022-08-07T17:40:08.223Z,9.98
2022-08-07T17:45:17.478Z,10.73
2022-08-07T17:50:31.481Z,9.75
2022-08-07T17:55:55.571Z,9.70
2022-08-07T18:01:21.320Z,9.30
2022-08-07T18:06:36.997Z,9.93
2022-08-07T18:12:16.287Z,9.55
2022-08-07T18:18:45.312Z,7.55
2022-08-07T18:23:06.937Z,7.95
2022-08-07T18:28:58.442Z,7.18
2022-08-07T18:34:35.851Z,6.50
2022-08-07T18:40:09.060Z,6.60
2022-08-07T18:50:48.169Z,6.82
2022-08-07T18:55:57.710Z,7.07
2022-08-07T19:02:18.366Z,7.68
2022-08-07T19:07:08.502Z,6.68
2022-08-07T19:12:16.048Z,6.53
2022-08-07T19:18:01.173Z,6.88
2022-08-07T19:23:18.709Z,7.57
2022-08-07T19:30:54.518Z,7.20
2022-08-07T19:33:56.589Z,7.80
2022-08-07T19:39:08.770Z,7.72
2022-08-07T19:44:22.127Z,6.35
2022-08-07T19:49:57.619Z,7.10
2022-08-07T19:54:56.497Z,6.70
2022-08-07T20:00:03.931Z,6.38
2022-08-07T20:05:17.196Z,7.95
2022-08-07T20:10:37.683Z,6.68
2022-08-07T20:15:50.221Z,7.13
2022-08-07T20:20:57.221Z,7.82
2022-08-07T20:26:10.075Z,7.25
2022-08-07T20:31:21.346Z,6.45
2022-08-07T20:36:26.219Z,6.13
2022-08-07T20:41:34.247Z,6.75
2022-08-07T20:46:43.678Z,7.67
2022-08-07T20:51:50.347Z,7.85
2022-08-07T20:56:56.752Z,8.55
2022-08-07T21:02:41.127Z,8.43
2022-08-07T21:08:00.081Z,8.32
2022-08-07T21:13:07.747Z,7.72
2022-08-07T21:18:25.676Z,7.15
2022-08-07T21:23:51.903Z,7.05
2022-08-07T21:28:58.169Z,6.93
2022-08-07T21:34:13.118Z,7.15
2022-08-07T21:39:45.915Z,7.60
2022-08-07T21:44:54.765Z,7.38
2022-08-07T21:50:14.676Z,7.72
2022-08-07T21:55:27.937Z,7.72
2022-08-07T22:00:33.131Z,7.20
2022-08-07T22:05:52.070Z,6.93
2022-08-07T22:10:59.505Z,7.70
2022-08-07T22:16:38.946Z,7.37
2022-08-07T22:22:04.345Z,7.10
2022-08-07T22:27:07.477Z,6.93
2022-08-07T22:32:25.967Z,7.80
2022-08-07T22:38:04.732Z,7.30
2022-08-07T22:43:23.430Z,8.95
2022-08-07T22:48:55.419Z,7.37
2022-08-07T22:54:28.415Z,9.10
2022-08-07T22:59:49.950Z,8.37
2022-08-07T23:06:08.270Z,8.90
2022-08-07T23:10:52.811Z,8.43
2022-08-07T23:16:48.420Z,6.53
2022-08-07T23:21:45.113Z,6.93
2022-08-07T23:27:08.267Z,7.17
2022-08-07T23:34:24.135Z,5.20
2022-08-07T23:38:36.709Z,4.20
2022-08-07T23:44:06.701Z,3.87
2022-08-07T23:49:50.617Z,2.90
2022-08-07T23:55:00.052Z,2.77
